sensor_id;sensor_type;location;lat;lon;timestamp;pressure;altitude;pressure_sealevel;temperature;humidity
41250;BME280;26984;59.928;30.306;2023-01-30T00:01:40;99007.72;;;2.54;100.00
41250;BME280;26984;59.928;30.306;2023-01-30T00:04:10;99004.84;;;2.36;100.00
41250;BME280;26984;59.928;30.306;2023-01-30T00:06:39;98998.31;;;2.38;100.00
41250;BME280;26984;59.928;30.306;2023-01-30T00:09:07;98983.78;;;2.34;100.00
41250;BME280;26984;59.928;30.306;2023-01-30T00:11:37;98980.72;;;2.37;100.00
41250;BME280;26984;59.928;30.306;2023-01-30T00:14:05;98959.88;;;2.34;100.00
41250;BME280;26984;59.928;30.306;2023-01-30T00:16:33;98952.72;;;2.35;100.00
41250;BME280;26984;59.928;30.306;2023-01-30T00:19:01;98940.25;;;2.29;100.00
41250;BME280;26984;59.928;30.306;2023-01-30T00:21:30;98949.66;;;2.45;100.00
41250;BME280;26984;59.928;30.306;2023-01-30T00:23:58;98930.22;;;2.37;100.00
41250;BME280;26984;59.928;30.306;2023-01-30T00:26:26;98931.06;;;2.31;100.00
41250;BME280;26984;59.928;30.306;2023-01-30T00:28:54;98918.19;;;2.22;100.00
41250;BME280;26984;59.928;30.306;2023-01-30T00:31:22;98915.53;;;2.28;100.00
41250;BME280;26984;59.928;30.306;2023-01-30T00:33:50;98909.81;;;2.31;100.00
41250;BME280;26984;59.928;30.306;2023-01-30T00:36:18;98888.75;;;2.30;100.00
41250;BME280;26984;59.928;30.306;2023-01-30T00:38:47;98884.03;;;2.25;100.00
41250;BME280;26984;59.928;30.306;2023-01-30T00:41:16;98892.63;;;2.34;100.00
41250;BME280;26984;59.928;30.306;2023-01-30T00:43:44;98864.00;;;2.23;100.00
41250;BME280;26984;59.928;30.306;2023-01-30T00:46:31;98873.00;;;2.28;100.00
41250;BME280;26984;59.928;30.306;2023-01-30T00:49:19;98859.31;;;2.31;100.00
41250;BME280;26984;59.928;30.306;2023-01-30T00:51:47;98848.25;;;2.34;100.00
41250;BME280;26984;59.928;30.306;2023-01-30T00:54:17;98837.44;;;2.29;100.00
41250;BME280;26984;59.928;30.306;2023-01-30T00:56:45;98834.78;;;2.29;100.00
41250;BME280;26984;59.928;30.306;2023-01-30T00:59:13;98824.97;;;2.23;100.00
41250;BME280;26984;59.928;30.306;2023-01-30T01:01:40;98824.91;;;2.56;100.00
41250;BME280;26984;59.928;30.306;2023-01-30T01:04:08;98813.75;;;2.21;100.00
41250;BME280;26984;59.928;30.306;2023-01-30T01:06:37;98795.97;;;2.22;100.00
41250;BME280;26984;59.928;30.306;2023-01-30T01:09:05;98793.28;;;2.35;100.00
41250;BME280;26984;59.928;30.306;2023-01-30T01:11:35;98780.59;;;2.24;100.00
41250;BME280;26984;59.928;30.306;2023-01-30T01:14:04;98760.59;;;2.21;100.00
41250;BME280;26984;59.928;30.306;2023-01-30T01:16:33;98744.28;;;2.11;100.00
41250;BME280;26984;59.928;30.306;2023-01-30T01:19:01;98756.53;;;2.19;100.00
41250;BME280;26984;59.928;30.306;2023-01-30T01:21:29;98756.25;;;2.40;100.00
41250;BME280;26984;59.928;30.306;2023-01-30T01:23:58;98745.06;;;2.18;100.00
41250;BME280;26984;59.928;30.306;2023-01-30T01:26:26;98736.09;;;2.12;100.00
41250;BME280;26984;59.928;30.306;2023-01-30T01:28:56;98725.03;;;2.22;100.00
41250;BME280;26984;59.928;30.306;2023-01-30T01:31:24;98700.56;;;2.07;100.00
41250;BME280;26984;59.928;30.306;2023-01-30T01:33:54;98721.56;;;2.22;100.00
41250;BME280;26984;59.928;30.306;2023-01-30T01:36:22;98708.28;;;2.22;100.00
41250;BME280;26984;59.928;30.306;2023-01-30T01:38:50;98705.00;;;2.26;100.00
41250;BME280;26984;59.928;30.306;2023-01-30T01:41:18;98684.22;;;2.10;100.00
41250;BME280;26984;59.928;30.306;2023-01-30T01:44:04;98689.66;;;2.35;100.00
41250;BME280;26984;59.928;30.306;2023-01-30T01:46:34;98678.66;;;2.25;100.00
41250;BME280;26984;59.928;30.306;2023-01-30T01:49:11;98680.25;;;2.32;100.00
41250;BME280;26984;59.928;30.306;2023-01-30T01:51:42;98672.69;;;2.29;100.00
41250;BME280;26984;59.928;30.306;2023-01-30T01:54:18;98662.69;;;2.25;100.00
41250;BME280;26984;59.928;30.306;2023-01-30T01:56:48;98665.34;;;2.25;100.00
41250;BME280;26984;59.928;30.306;2023-01-30T01:59:22;98662.06;;;2.29;100.00
41250;BME280;26984;59.928;30.306;2023-01-30T02:01:55;98647.72;;;2.37;100.00
41250;BME280;26984;59.928;30.306;2023-01-30T02:04:27;98648.13;;;2.34;100.00
41250;BME280;26984;59.928;30.306;2023-01-30T02:07:17;98630.16;;;2.36;100.00
41250;BME280;26984;59.928;30.306;2023-01-30T02:09:45;98617.72;;;2.23;100.00
41250;BME280;26984;59.928;30.306;2023-01-30T02:12:13;98621.00;;;2.25;100.00
41250;BME280;26984;59.928;30.306;2023-01-30T02:14:43;98611.97;;;2.33;100.00
41250;BME280;26984;59.928;30.306;2023-01-30T02:17:13;98598.72;;;2.26;100.00
41250;BME280;26984;59.928;30.306;2023-01-30T02:19:46;98594.56;;;2.37;100.00
41250;BME280;26984;59.928;30.306;2023-01-30T02:22:30;98567.19;;;2.36;100.00
41250;BME280;26984;59.928;30.306;2023-01-30T02:25:34;98575.91;;;2.50;100.00
41250;BME280;26984;59.928;30.306;2023-01-30T02:31:26;98540.53;;;2.50;100.00
41250;BME280;26984;59.928;30.306;2023-01-30T02:34:16;98531.13;;;2.47;100.00
41250;BME280;26984;59.928;30.306;2023-01-30T02:36:55;98522.63;;;2.38;100.00
41250;BME280;26984;59.928;30.306;2023-01-30T02:39:35;98507.91;;;2.36;100.00
41250;BME280;26984;59.928;30.306;2023-01-30T02:42:10;98503.84;;;2.33;100.00
41250;BME280;26984;59.928;30.306;2023-01-30T02:44:49;98493.22;;;2.33;100.00
41250;BME280;26984;59.928;30.306;2023-01-30T02:47:24;98465.72;;;2.21;100.00
41250;BME280;26984;59.928;30.306;2023-01-30T02:49:59;98461.59;;;2.25;100.00
41250;BME280;26984;59.928;30.306;2023-01-30T02:52:31;98467.56;;;2.21;100.00
41250;BME280;26984;59.928;30.306;2023-01-30T02:55:00;98451.44;;;2.15;100.00
41250;BME280;26984;59.928;30.306;2023-01-30T02:57:32;98436.50;;;2.21;100.00
41250;BME280;26984;59.928;30.306;2023-01-30T03:00:03;98431.19;;;2.21;100.00
41250;BME280;26984;59.928;30.306;2023-01-30T03:03:00;98416.03;;;2.47;100.00
41250;BME280;26984;59.928;30.306;2023-01-30T03:08:40;98404.56;;;2.28;100.00
41250;BME280;26984;59.928;30.306;2023-01-30T03:11:11;98397.63;;;2.45;100.00
41250;BME280;26984;59.928;30.306;2023-01-30T03:13:46;98386.53;;;2.30;100.00
41250;BME280;26984;59.928;30.306;2023-01-30T03:16:20;98372.81;;;2.33;100.00
41250;BME280;26984;59.928;30.306;2023-01-30T03:18:51;98377.63;;;2.24;100.00
41250;BME280;26984;59.928;30.306;2023-01-30T03:21:19;98365.94;;;2.25;100.00
41250;BME280;26984;59.928;30.306;2023-01-30T03:23:47;98358.19;;;2.24;100.00
41250;BME280;26984;59.928;30.306;2023-01-30T03:26:17;98342.63;;;2.27;100.00
41250;BME280;26984;59.928;30.306;2023-01-30T03:28:48;98332.72;;;2.34;100.00
41250;BME280;26984;59.928;30.306;2023-01-30T03:31:17;98332.53;;;2.36;100.00
41250;BME280;26984;59.928;30.306;2023-01-30T03:33:45;98341.91;;;2.38;100.00
41250;BME280;26984;59.928;30.306;2023-01-30T03:36:14;98334.75;;;2.39;100.00
41250;BME280;26984;59.928;30.306;2023-01-30T03:38:42;98327.59;;;2.39;100.00
41250;BME280;26984;59.928;30.306;2023-01-30T03:41:11;98316.59;;;2.36;100.00
41250;BME280;26984;59.928;30.306;2023-01-30T03:43:39;98300.94;;;2.28;100.00
41250;BME280;26984;59.928;30.306;2023-01-30T03:46:07;98304.34;;;2.35;100.00
41250;BME280;26984;59.928;30.306;2023-01-30T03:48:35;98299.66;;;2.30;100.00
41250;BME280;26984;59.928;30.306;2023-01-30T03:51:03;98276.81;;;2.29;100.00
41250;BME280;26984;59.928;30.306;2023-01-30T03:53:33;98278.66;;;2.29;100.00
41250;BME280;26984;59.928;30.306;2023-01-30T03:56:01;98284.47;;;2.37;100.00
41250;BME280;26984;59.928;30.306;2023-01-30T03:58:31;98277.16;;;2.33;100.00
41250;BME280;26984;59.928;30.306;2023-01-30T04:01:11;98258.19;;;2.29;100.00
41250;BME280;26984;59.928;30.306;2023-01-30T04:03:40;98243.44;;;2.33;100.00
41250;BME280;26984;59.928;30.306;2023-01-30T04:06:08;98243.59;;;2.38;100.00
41250;BME280;26984;59.928;30.306;2023-01-30T04:08:38;98244.25;;;2.34;100.00
41250;BME280;26984;59.928;30.306;2023-01-30T04:11:07;98224.75;;;2.40;100.00
41250;BME280;26984;59.928;30.306;2023-01-30T04:13:35;98217.03;;;2.38;100.00
41250;BME280;26984;59.928;30.306;2023-01-30T04:16:17;98209.91;;;2.51;100.00
41250;BME280;26984;59.928;30.306;2023-01-30T04:19:08;98145.84;;;2.10;100.00
41250;BME280;26984;59.928;30.306;2023-01-30T04:21:37;98183.94;;;2.34;100.00
41250;BME280;26984;59.928;30.306;2023-01-30T04:24:07;98179.72;;;2.45;100.00
41250;BME280;26984;59.928;30.306;2023-01-30T04:26:35;98167.47;;;2.44;100.00
41250;BME280;26984;59.928;30.306;2023-01-30T04:29:03;98169.78;;;2.40;100.00
41250;BME280;26984;59.928;30.306;2023-01-30T04:31:31;98161.75;;;2.59;100.00
41250;BME280;26984;59.928;30.306;2023-01-30T04:34:11;98152.78;;;2.42;100.00
41250;BME280;26984;59.928;30.306;2023-01-30T04:36:39;98156.03;;;2.44;100.00
41250;BME280;26984;59.928;30.306;2023-01-30T04:39:08;98142.72;;;2.62;100.00
41250;BME280;26984;59.928;30.306;2023-01-30T04:41:36;98135.13;;;2.47;100.00
41250;BME280;26984;59.928;30.306;2023-01-30T04:44:04;98117.50;;;2.53;100.00
41250;BME280;26984;59.928;30.306;2023-01-30T04:46:53;98121.16;;;2.52;100.00
41250;BME280;26984;59.928;30.306;2023-01-30T04:49:21;98112.03;;;2.48;100.00
41250;BME280;26984;59.928;30.306;2023-01-30T04:51:49;98110.19;;;2.48;100.00
41250;BME280;26984;59.928;30.306;2023-01-30T04:54:19;98101.91;;;2.56;100.00
41250;BME280;26984;59.928;30.306;2023-01-30T04:56:47;98098.31;;;2.62;100.00
41250;BME280;26984;59.928;30.306;2023-01-30T04:59:16;98093.09;;;2.56;100.00
41250;BME280;26984;59.928;30.306;2023-01-30T05:01:46;98079.69;;;2.51;100.00
41250;BME280;26984;59.928;30.306;2023-01-30T05:04:14;98078.53;;;2.47;100.00
41250;BME280;26984;59.928;30.306;2023-01-30T05:06:42;98078.88;;;2.50;100.00
41250;BME280;26984;59.928;30.306;2023-01-30T05:09:10;98076.59;;;2.54;100.00
41250;BME280;26984;59.928;30.306;2023-01-30T05:11:39;98067.47;;;2.61;100.00
41250;BME280;26984;59.928;30.306;2023-01-30T05:14:07;98059.75;;;2.60;100.00
41250;BME280;26984;59.928;30.306;2023-01-30T05:16:35;98053.38;;;2.61;100.00
41250;BME280;26984;59.928;30.306;2023-01-30T05:19:03;98044.25;;;2.57;100.00
41250;BME280;26984;59.928;30.306;2023-01-30T05:21:31;98039.72;;;2.57;100.00
41250;BME280;26984;59.928;30.306;2023-01-30T05:23:59;98033.91;;;2.49;100.00
41250;BME280;26984;59.928;30.306;2023-01-30T05:26:26;98034.28;;;2.52;100.00
41250;BME280;26984;59.928;30.306;2023-01-30T05:28:56;98032.66;;;2.51;100.00
41250;BME280;26984;59.928;30.306;2023-01-30T05:31:24;98030.81;;;2.52;100.00
41250;BME280;26984;59.928;30.306;2023-01-30T05:33:52;98006.88;;;2.40;100.00
41250;BME280;26984;59.928;30.306;2023-01-30T05:36:22;98034.50;;;2.51;100.00
41250;BME280;26984;59.928;30.306;2023-01-30T05:38:50;98015.09;;;2.38;100.00
41250;BME280;26984;59.928;30.306;2023-01-30T05:41:18;98010.56;;;2.39;100.00
41250;BME280;26984;59.928;30.306;2023-01-30T05:43:48;97997.28;;;2.39;100.00
41250;BME280;26984;59.928;30.306;2023-01-30T05:46:18;98009.44;;;2.47;100.00
41250;BME280;26984;59.928;30.306;2023-01-30T05:48:46;97995.78;;;2.43;100.00
41250;BME280;26984;59.928;30.306;2023-01-30T05:51:14;97994.44;;;2.76;100.00
41250;BME280;26984;59.928;30.306;2023-01-30T05:53:42;97993.84;;;2.50;100.00
41250;BME280;26984;59.928;30.306;2023-01-30T05:56:10;98004.69;;;2.49;100.00
41250;BME280;26984;59.928;30.306;2023-01-30T05:58:38;97985.16;;;2.43;100.00
41250;BME280;26984;59.928;30.306;2023-01-30T06:01:09;97977.75;;;2.45;100.00
41250;BME280;26984;59.928;30.306;2023-01-30T06:03:39;97968.53;;;2.48;100.00
41250;BME280;26984;59.928;30.306;2023-01-30T06:06:09;97965.75;;;2.43;100.00
41250;BME280;26984;59.928;30.306;2023-01-30T06:08:37;97951.19;;;2.33;100.00
41250;BME280;26984;59.928;30.306;2023-01-30T06:11:05;97964.16;;;2.65;100.00
41250;BME280;26984;59.928;30.306;2023-01-30T06:13:33;97953.72;;;2.40;100.00
41250;BME280;26984;59.928;30.306;2023-01-30T06:16:02;97951.66;;;2.42;100.00
41250;BME280;26984;59.928;30.306;2023-01-30T06:18:30;97952.47;;;2.43;100.00
41250;BME280;26984;59.928;30.306;2023-01-30T06:20:59;97928.00;;;2.64;100.00
41250;BME280;26984;59.928;30.306;2023-01-30T06:23:27;97931.88;;;2.38;100.00
41250;BME280;26984;59.928;30.306;2023-01-30T06:25:55;97927.50;;;2.32;100.00
41250;BME280;26984;59.928;30.306;2023-01-30T06:28:23;97913.72;;;2.23;100.00
41250;BME280;26984;59.928;30.306;2023-01-30T06:30:52;97909.72;;;2.21;100.00
41250;BME280;26984;59.928;30.306;2023-01-30T06:33:20;97910.28;;;2.23;100.00
41250;BME280;26984;59.928;30.306;2023-01-30T06:35:50;97902.09;;;2.24;100.00
41250;BME280;26984;59.928;30.306;2023-01-30T06:38:19;97897.94;;;2.28;100.00
41250;BME280;26984;59.928;30.306;2023-01-30T06:40:48;97899.78;;;2.28;100.00
41250;BME280;26984;59.928;30.306;2023-01-30T06:43:17;97894.69;;;2.38;100.00
41250;BME280;26984;59.928;30.306;2023-01-30T06:45:45;97894.22;;;2.41;100.00
41250;BME280;26984;59.928;30.306;2023-01-30T06:48:13;97892.63;;;2.40;100.00
41250;BME280;26984;59.928;30.306;2023-01-30T06:50:41;97864.91;;;2.36;100.00
41250;BME280;26984;59.928;30.306;2023-01-30T06:53:09;97877.63;;;2.46;100.00
41250;BME280;26984;59.928;30.306;2023-01-30T06:55:39;97868.34;;;2.48;100.00
41250;BME280;26984;59.928;30.306;2023-01-30T06:58:08;97871.69;;;2.55;100.00
41250;BME280;26984;59.928;30.306;2023-01-30T07:00:38;97828.94;;;2.45;100.00
41250;BME280;26984;59.928;30.306;2023-01-30T07:03:09;97856.34;;;2.57;100.00
41250;BME280;26984;59.928;30.306;2023-01-30T07:05:38;97852.19;;;2.50;100.00
41250;BME280;26984;59.928;30.306;2023-01-30T07:08:05;97849.28;;;2.63;100.00
41250;BME280;26984;59.928;30.306;2023-01-30T07:10:33;97822.25;;;2.31;100.00
41250;BME280;26984;59.928;30.306;2023-01-30T07:13:03;97843.88;;;2.46;100.00
41250;BME280;26984;59.928;30.306;2023-01-30T07:15:31;97845.25;;;2.49;100.00
41250;BME280;26984;59.928;30.306;2023-01-30T07:17:59;97834.63;;;2.37;100.00
41250;BME280;26984;59.928;30.306;2023-01-30T07:20:27;97834.63;;;2.60;100.00
41250;BME280;26984;59.928;30.306;2023-01-30T07:22:56;97807.13;;;2.43;100.00
41250;BME280;26984;59.928;30.306;2023-01-30T07:25:24;97834.59;;;2.72;100.00
41250;BME280;26984;59.928;30.306;2023-01-30T07:27:53;97826.66;;;2.60;100.00
41250;BME280;26984;59.928;30.306;2023-01-30T07:30:24;97820.28;;;2.61;100.00
41250;BME280;26984;59.928;30.306;2023-01-30T07:32:52;97824.66;;;2.68;100.00
41250;BME280;26984;59.928;30.306;2023-01-30T07:35:21;97823.31;;;2.53;100.00
41250;BME280;26984;59.928;30.306;2023-01-30T07:37:49;97810.81;;;2.54;100.00
41250;BME280;26984;59.928;30.306;2023-01-30T07:40:19;97800.41;;;2.52;100.00
41250;BME280;26984;59.928;30.306;2023-01-30T07:42:55;97803.88;;;2.64;100.00
41250;BME280;26984;59.928;30.306;2023-01-30T07:45:27;97791.03;;;2.61;100.00
41250;BME280;26984;59.928;30.306;2023-01-30T07:47:56;97797.50;;;2.66;100.00
41250;BME280;26984;59.928;30.306;2023-01-30T07:50:24;97796.94;;;2.63;100.00
41250;BME280;26984;59.928;30.306;2023-01-30T07:52:52;97790.41;;;2.83;100.00
41250;BME280;26984;59.928;30.306;2023-01-30T07:55:19;97782.25;;;2.61;100.00
41250;BME280;26984;59.928;30.306;2023-01-30T07:57:47;97792.66;;;2.62;100.00
41250;BME280;26984;59.928;30.306;2023-01-30T08:00:16;97781.13;;;2.57;100.00
41250;BME280;26984;59.928;30.306;2023-01-30T08:02:45;97753.53;;;2.46;100.00
41250;BME280;26984;59.928;30.306;2023-01-30T08:05:13;97785.47;;;2.63;100.00
41250;BME280;26984;59.928;30.306;2023-01-30T08:07:41;97766.09;;;2.51;100.00
41250;BME280;26984;59.928;30.306;2023-01-30T08:10:10;97782.69;;;2.70;100.00
41250;BME280;26984;59.928;30.306;2023-01-30T08:12:38;97770.69;;;2.67;100.00
41250;BME280;26984;59.928;30.306;2023-01-30T08:15:07;97774.25;;;2.73;100.00
41250;BME280;26984;59.928;30.306;2023-01-30T08:17:36;97776.44;;;2.76;100.00
41250;BME280;26984;59.928;30.306;2023-01-30T08:20:06;97758.16;;;2.79;100.00
41250;BME280;26984;59.928;30.306;2023-01-30T08:22:35;97758.31;;;2.73;100.00
41250;BME280;26984;59.928;30.306;2023-01-30T08:25:03;97771.09;;;2.87;100.00
41250;BME280;26984;59.928;30.306;2023-01-30T08:27:33;97749.47;;;2.84;100.00
41250;BME280;26984;59.928;30.306;2023-01-30T08:30:01;97735.63;;;2.82;100.00
41250;BME280;26984;59.928;30.306;2023-01-30T08:32:29;97753.84;;;2.90;100.00
41250;BME280;26984;59.928;30.306;2023-01-30T08:34:57;97752.25;;;2.89;100.00
41250;BME280;26984;59.928;30.306;2023-01-30T08:37:26;97742.88;;;2.86;100.00
41250;BME280;26984;59.928;30.306;2023-01-30T08:39:54;97732.38;;;2.80;100.00
41250;BME280;26984;59.928;30.306;2023-01-30T08:42:22;97744.88;;;2.79;100.00
41250;BME280;26984;59.928;30.306;2023-01-30T08:44:50;97731.50;;;2.74;100.00
41250;BME280;26984;59.928;30.306;2023-01-30T08:47:18;97727.06;;;2.80;100.00
41250;BME280;26984;59.928;30.306;2023-01-30T08:49:46;97730.44;;;2.75;100.00
41250;BME280;26984;59.928;30.306;2023-01-30T08:52:16;97732.06;;;2.76;100.00
41250;BME280;26984;59.928;30.306;2023-01-30T08:54:46;97726.50;;;2.78;100.00
41250;BME280;26984;59.928;30.306;2023-01-30T08:57:14;97722.69;;;2.74;100.00
41250;BME280;26984;59.928;30.306;2023-01-30T08:59:41;97719.88;;;2.92;100.00
41250;BME280;26984;59.928;30.306;2023-01-30T09:02:10;97718.75;;;2.76;100.00
41250;BME280;26984;59.928;30.306;2023-01-30T09:04:38;97714.97;;;2.72;100.00
41250;BME280;26984;59.928;30.306;2023-01-30T09:07:06;97718.44;;;2.73;100.00
41250;BME280;26984;59.928;30.306;2023-01-30T09:09:34;97698.34;;;2.65;100.00
41250;BME280;26984;59.928;30.306;2023-01-30T09:12:04;97696.50;;;2.66;100.00
41250;BME280;26984;59.928;30.306;2023-01-30T09:14:32;97703.75;;;2.70;100.00
41250;BME280;26984;59.928;30.306;2023-01-30T09:17:00;97703.00;;;2.58;100.00
41250;BME280;26984;59.928;30.306;2023-01-30T09:19:28;97690.50;;;2.58;100.00
41250;BME280;26984;59.928;30.306;2023-01-30T09:21:56;97696.78;;;2.81;100.00
41250;BME280;26984;59.928;30.306;2023-01-30T09:24:23;97690.97;;;2.67;100.00
41250;BME280;26984;59.928;30.306;2023-01-30T09:26:52;97684.13;;;2.59;100.00
41250;BME280;26984;59.928;30.306;2023-01-30T09:29:24;97678.81;;;2.59;100.00
41250;BME280;26984;59.928;30.306;2023-01-30T09:31:52;97692.78;;;2.67;100.00
41250;BME280;26984;59.928;30.306;2023-01-30T09:34:21;97674.81;;;2.57;100.00
41250;BME280;26984;59.928;30.306;2023-01-30T09:36:52;97677.00;;;2.60;100.00
41250;BME280;26984;59.928;30.306;2023-01-30T09:39:20;97663.28;;;2.51;100.00
41250;BME280;26984;59.928;30.306;2023-01-30T09:41:59;97670.53;;;2.56;100.00
41250;BME280;26984;59.928;30.306;2023-01-30T09:44:56;97670.50;;;2.68;100.00
41250;BME280;26984;59.928;30.306;2023-01-30T09:47:37;97650.56;;;2.53;100.00
41250;BME280;26984;59.928;30.306;2023-01-30T09:50:22;97665.06;;;2.62;100.00
41250;BME280;26984;59.928;30.306;2023-01-30T09:53:01;97663.13;;;2.58;100.00
41250;BME280;26984;59.928;30.306;2023-01-30T09:55:36;97660.13;;;2.54;100.00
41250;BME280;26984;59.928;30.306;2023-01-30T09:58:07;97650.56;;;2.53;100.00
41250;BME280;26984;59.928;30.306;2023-01-30T10:00:41;97660.72;;;2.56;100.00
41250;BME280;26984;59.928;30.306;2023-01-30T10:03:10;97649.25;;;2.56;100.00
41250;BME280;26984;59.928;30.306;2023-01-30T10:05:43;97634.97;;;2.45;100.00
41250;BME280;26984;59.928;30.306;2023-01-30T10:08:41;97643.63;;;2.52;100.00
41250;BME280;26984;59.928;30.306;2023-01-30T10:11:22;97628.31;;;2.43;100.00
41250;BME280;26984;59.928;30.306;2023-01-30T10:14:12;97642.81;;;2.52;100.00
41250;BME280;26984;59.928;30.306;2023-01-30T10:16:46;97640.34;;;2.62;100.00
41250;BME280;26984;59.928;30.306;2023-01-30T10:19:38;97628.50;;;2.53;100.00
41250;BME280;26984;59.928;30.306;2023-01-30T10:22:16;97622.53;;;2.34;100.00
41250;BME280;26984;59.928;30.306;2023-01-30T10:24:58;97616.75;;;2.37;100.00
41250;BME280;26984;59.928;30.306;2023-01-30T10:27:30;97601.09;;;2.24;100.00
41250;BME280;26984;59.928;30.306;2023-01-30T10:30:02;97619.13;;;2.22;100.00
41250;BME280;26984;59.928;30.306;2023-01-30T10:32:38;97613.50;;;2.18;100.00
41250;BME280;26984;59.928;30.306;2023-01-30T10:35:14;97613.50;;;2.18;100.00
41250;BME280;26984;59.928;30.306;2023-01-30T10:37:50;97612.34;;;2.14;100.00
41250;BME280;26984;59.928;30.306;2023-01-30T10:40:25;97610.50;;;2.14;100.00
41250;BME280;26984;59.928;30.306;2023-01-30T10:43:00;97606.13;;;2.08;100.00
41250;BME280;26984;59.928;30.306;2023-01-30T10:45:35;97607.47;;;2.23;100.00
41250;BME280;26984;59.928;30.306;2023-01-30T10:48:20;97596.13;;;2.27;100.00
41250;BME280;26984;59.928;30.306;2023-01-30T10:50:55;97596.69;;;2.29;100.00
41250;BME280;26984;59.928;30.306;2023-01-30T10:53:29;97587.34;;;2.27;100.00
41250;BME280;26984;59.928;30.306;2023-01-30T10:56:04;97583.88;;;2.26;100.00
41250;BME280;26984;59.928;30.306;2023-01-30T10:58:44;97574.78;;;2.22;100.00
41250;BME280;26984;59.928;30.306;2023-01-30T11:01:21;97583.34;;;2.24;100.00
41250;BME280;26984;59.928;30.306;2023-01-30T11:03:54;97579.44;;;2.15;100.00
41250;BME280;26984;59.928;30.306;2023-01-30T11:06:24;97574.13;;;2.15;100.00
41250;BME280;26984;59.928;30.306;2023-01-30T11:08:53;97584.28;;;2.18;100.00
41250;BME280;26984;59.928;30.306;2023-01-30T11:11:34;97572.13;;;2.22;100.00
41250;BME280;26984;59.928;30.306;2023-01-30T11:14:10;97570.53;;;2.21;100.00
41250;BME280;26984;59.928;30.306;2023-01-30T11:16:43;97575.25;;;2.19;100.00
41250;BME280;26984;59.928;30.306;2023-01-30T11:19:15;97574.38;;;2.13;100.00
41250;BME280;26984;59.928;30.306;2023-01-30T11:21:47;97563.31;;;2.05;100.00
41250;BME280;26984;59.928;30.306;2023-01-30T11:24:19;97572.88;;;2.06;100.00
41250;BME280;26984;59.928;30.306;2023-01-30T11:26:47;97554.75;;;2.03;100.00
41250;BME280;26984;59.928;30.306;2023-01-30T11:29:15;97562.22;;;2.18;100.00
41250;BME280;26984;59.928;30.306;2023-01-30T11:31:51;97557.19;;;2.04;100.00
41250;BME280;26984;59.928;30.306;2023-01-30T11:34:22;97552.69;;;2.05;100.00
41250;BME280;26984;59.928;30.306;2023-01-30T11:36:50;97558.09;;;2.10;100.00
41250;BME280;26984;59.928;30.306;2023-01-30T11:39:20;97556.84;;;2.01;100.00
41250;BME280;26984;59.928;30.306;2023-01-30T11:42:01;97553.25;;;2.07;100.00
41250;BME280;26984;59.928;30.306;2023-01-30T11:44:32;97554.53;;;2.04;100.00
41250;BME280;26984;59.928;30.306;2023-01-30T11:47:01;97545.66;;;1.99;100.00
41250;BME280;26984;59.928;30.306;2023-01-30T11:49:36;97529.06;;;1.91;100.00
41250;BME280;26984;59.928;30.306;2023-01-30T11:52:07;97540.13;;;2.00;100.00
41250;BME280;26984;59.928;30.306;2023-01-30T11:54:38;97537.59;;;1.94;100.00
41250;BME280;26984;59.928;30.306;2023-01-30T11:57:10;97550.16;;;1.98;100.00
41250;BME280;26984;59.928;30.306;2023-01-30T11:59:43;97552.69;;;2.05;100.00
41250;BME280;26984;59.928;30.306;2023-01-30T12:02:17;97544.38;;;2.01;100.00
41250;BME280;26984;59.928;30.306;2023-01-30T12:04:51;97539.88;;;2.02;100.00
41250;BME280;26984;59.928;30.306;2023-01-30T12:07:22;97545.66;;;1.99;100.00
41250;BME280;26984;59.928;30.306;2023-01-30T12:09:51;97562.50;;;2.04;100.00
41250;BME280;26984;59.928;30.306;2023-01-30T12:12:29;97544.72;;;2.05;100.00
41250;BME280;26984;59.928;30.306;2023-01-30T12:15:04;97544.56;;;2.11;100.00
41250;BME280;26984;59.928;30.306;2023-01-30T12:17:43;97561.91;;;2.14;100.00
41250;BME280;26984;59.928;30.306;2023-01-30T12:20:18;97540.44;;;2.04;100.00
41250;BME280;26984;59.928;30.306;2023-01-30T12:22:57;97556.00;;;2.12;100.00
41250;BME280;26984;59.928;30.306;2023-01-30T12:25:30;97561.84;;;2.26;100.00
41250;BME280;26984;59.928;30.306;2023-01-30T12:28:02;97551.75;;;2.11;100.00
41250;BME280;26984;59.928;30.306;2023-01-30T12:30:35;97554.16;;;2.12;100.00
41250;BME280;26984;59.928;30.306;2023-01-30T12:33:05;97555.19;;;2.11;100.00
41250;BME280;26984;59.928;30.306;2023-01-30T12:35:57;97547.91;;;2.19;100.00
41250;BME280;26984;59.928;30.306;2023-01-30T12:38:47;97533.47;;;2.14;100.00
41250;BME280;26984;59.928;30.306;2023-01-30T12:41:29;97520.19;;;2.14;100.00
41250;BME280;26984;59.928;30.306;2023-01-30T12:44:12;97551.41;;;2.07;100.00
41250;BME280;26984;59.928;30.306;2023-01-30T12:46:58;97544.25;;;2.08;100.00
41250;BME280;26984;59.928;30.306;2023-01-30T12:49:43;97541.34;;;2.09;100.00
41250;BME280;26984;59.928;30.306;2023-01-30T12:52:29;97556.00;;;2.12;100.00
41250;BME280;26984;59.928;30.306;2023-01-30T12:55:23;97555.78;;;2.13;100.00
41250;BME280;26984;59.928;30.306;2023-01-30T12:57:58;97558.09;;;2.10;100.00
41250;BME280;26984;59.928;30.306;2023-01-30T13:00:39;97567.09;;;2.09;100.00
41250;BME280;26984;59.928;30.306;2023-01-30T13:03:22;97572.97;;;2.11;100.00
41250;BME280;26984;59.928;30.306;2023-01-30T13:05:58;97576.00;;;2.03;100.00
41250;BME280;26984;59.928;30.306;2023-01-30T13:08:45;97589.59;;;2.06;100.00
41250;BME280;26984;59.928;30.306;2023-01-30T13:11:30;97583.75;;;2.04;100.00
41250;BME280;26984;59.928;30.306;2023-01-30T13:14:10;97565.28;;;1.98;100.00
41250;BME280;26984;59.928;30.306;2023-01-30T13:16:50;97579.38;;;1.98;100.00
41250;BME280;26984;59.928;30.306;2023-01-30T13:19:29;97585.69;;;2.09;100.00
41250;BME280;26984;59.928;30.306;2023-01-30T13:22:07;97587.56;;;1.97;100.00